sim
Sign-in with your pilot id or email,
or register
Callsign
Passwort

Schedule Details

Flight Number: DLH2713 (1)
Departure: Hamburg Airport (EDDH) at 07:30
Arrival: Munich Airport (EDDM) at 08:45
Route: Lufthansa Passenger Schedule. Enter filed route here before submitting Pirep.

Weather Information
Getting current METAR information for EDDH 242150Z 11006KT CAVOK 13/07 Q1000 NOSIG
Getting current METAR information for EDDM 242150Z 27018G29KT 9999 -RA SCT019 BKN025 15/13 Q1004 BECMG 25010KT

Schedule Frequency

Route Map